sensor_id;sensor_type;location;lat;lon;timestamp;pressure;altitude;pressure_sealevel;temperature;humidity
71735;BME280;59577;52.122;5.406;2023-07-28T00:00:38;100513.22;;;17.78;100.00
71735;BME280;59577;52.122;5.406;2023-07-28T00:03:05;100513.63;;;17.76;100.00
71735;BME280;59577;52.122;5.406;2023-07-28T00:05:32;100505.00;;;17.78;100.00
71735;BME280;59577;52.122;5.406;2023-07-28T00:07:58;100518.28;;;17.79;100.00
71735;BME280;59577;52.122;5.406;2023-07-28T00:10:26;100510.50;;;17.78;100.00
71735;BME280;59577;52.122;5.406;2023-07-28T00:12:53;100521.44;;;17.78;100.00
71735;BME280;59577;52.122;5.406;2023-07-28T00:15:20;100518.69;;;17.78;100.00
71735;BME280;59577;52.122;5.406;2023-07-28T00:17:47;100509.72;;;17.77;100.00
71735;BME280;59577;52.122;5.406;2023-07-28T00:20:14;100509.72;;;17.77;100.00
71735;BME280;59577;52.122;5.406;2023-07-28T00:22:40;100505.00;;;17.78;100.00
71735;BME280;59577;52.122;5.406;2023-07-28T00:25:07;100503.84;;;17.79;100.00
71735;BME280;59577;52.122;5.406;2023-07-28T00:27:34;100497.56;;;17.78;100.00
71735;BME280;59577;52.122;5.406;2023-07-28T00:30:00;100501.88;;;17.79;100.00
71735;BME280;59577;52.122;5.406;2023-07-28T00:32:27;100504.19;;;17.81;100.00
71735;BME280;59577;52.122;5.406;2023-07-28T00:34:54;100506.53;;;17.82;100.00
71735;BME280;59577;52.122;5.406;2023-07-28T00:37:20;100501.81;;;17.83;100.00
71735;BME280;59577;52.122;5.406;2023-07-28T00:39:47;100499.84;;;17.83;100.00
71735;BME280;59577;52.122;5.406;2023-07-28T00:42:13;100510.81;;;17.83;100.00
71735;BME280;59577;52.122;5.406;2023-07-28T00:44:40;100509.63;;;17.84;100.00
71735;BME280;59577;52.122;5.406;2023-07-28T00:47:06;100505.31;;;17.83;100.00
71735;BME280;59577;52.122;5.406;2023-07-28T00:49:33;100510.81;;;17.83;100.00
71735;BME280;59577;52.122;5.406;2023-07-28T00:52:03;100503.00;;;17.82;100.00
71735;BME280;59577;52.122;5.406;2023-07-28T00:54:30;100505.31;;;17.83;100.00
71735;BME280;59577;52.122;5.406;2023-07-28T00:56:58;100503.38;;;17.84;100.00
71735;BME280;59577;52.122;5.406;2023-07-28T00:59:27;100497.13;;;17.83;100.00
71735;BME280;59577;52.122;5.406;2023-07-28T01:01:53;100494.00;;;17.81;100.00
71735;BME280;59577;52.122;5.406;2023-07-28T01:04:20;100502.22;;;17.81;100.00
71735;BME280;59577;52.122;5.406;2023-07-28T01:07:13;100510.84;;;17.80;100.00
71735;BME280;59577;52.122;5.406;2023-07-28T01:09:52;100508.53;;;17.78;100.00
71735;BME280;59577;52.122;5.406;2023-07-28T01:12:24;100504.25;;;17.77;100.00
71735;BME280;59577;52.122;5.406;2023-07-28T01:14:50;100517.53;;;17.79;100.00
71735;BME280;59577;52.122;5.406;2023-07-28T01:17:17;100509.72;;;17.77;100.00
71735;BME280;59577;52.122;5.406;2023-07-28T01:19:45;100508.94;;;17.77;100.00
71735;BME280;59577;52.122;5.406;2023-07-28T01:22:39;100514.41;;;17.77;100.00
71735;BME280;59577;52.122;5.406;2023-07-28T01:25:22;100512.88;;;17.76;100.00
71735;BME280;59577;52.122;5.406;2023-07-28T01:27:55;100514.03;;;17.75;100.00
71735;BME280;59577;52.122;5.406;2023-07-28T01:30:23;100519.50;;;17.75;100.00
71735;BME280;59577;52.122;5.406;2023-07-28T01:32:58;100524.22;;;17.74;100.00
71735;BME280;59577;52.122;5.406;2023-07-28T01:35:30;100529.69;;;17.74;100.00
71735;BME280;59577;52.122;5.406;2023-07-28T01:37:57;100528.53;;;17.75;100.00
71735;BME280;59577;52.122;5.406;2023-07-28T01:40:24;100526.16;;;17.77;100.00
71735;BME280;59577;52.122;5.406;2023-07-28T01:42:50;100528.47;;;17.79;100.00
71735;BME280;59577;52.122;5.406;2023-07-28T01:45:17;100526.50;;;17.79;100.00
71735;BME280;59577;52.122;5.406;2023-07-28T01:47:43;100527.69;;;17.78;100.00
71735;BME280;59577;52.122;5.406;2023-07-28T01:50:10;100524.53;;;17.80;100.00
71735;BME280;59577;52.122;5.406;2023-07-28T01:52:36;100521.81;;;17.80;100.00
71735;BME280;59577;52.122;5.406;2023-07-28T01:55:03;100521.03;;;17.79;100.00
71735;BME280;59577;52.122;5.406;2023-07-28T01:57:33;100521.03;;;17.79;100.00
71735;BME280;59577;52.122;5.406;2023-07-28T02:00:00;100516.31;;;17.80;100.00
71735;BME280;59577;52.122;5.406;2023-07-28T02:02:26;100519.84;;;17.80;100.00
71735;BME280;59577;52.122;5.406;2023-07-28T02:04:53;100510.50;;;17.78;100.00
71735;BME280;59577;52.122;5.406;2023-07-28T02:07:22;100526.16;;;17.77;100.00
71735;BME280;59577;52.122;5.406;2023-07-28T02:09:49;100523.41;;;17.77;100.00
71735;BME280;59577;52.122;5.406;2023-07-28T02:12:15;100530.81;;;17.77;100.00
71735;BME280;59577;52.122;5.406;2023-07-28T02:14:42;100533.19;;;17.75;100.00
71735;BME280;59577;52.122;5.406;2023-07-28T02:17:08;100521.47;;;17.74;100.00
71735;BME280;59577;52.122;5.406;2023-07-28T02:19:35;100524.63;;;17.73;100.00
71735;BME280;59577;52.122;5.406;2023-07-28T02:22:02;100522.28;;;17.71;100.00
71735;BME280;59577;52.122;5.406;2023-07-28T02:24:29;100516.81;;;17.71;100.00
71735;BME280;59577;52.122;5.406;2023-07-28T02:26:55;100518.78;;;17.71;100.00
71735;BME280;59577;52.122;5.406;2023-07-28T02:29:22;100516.81;;;17.71;100.00
71735;BME280;59577;52.122;5.406;2023-07-28T02:31:48;100526.63;;;17.69;100.00
71735;BME280;59577;52.122;5.406;2023-07-28T02:34:15;100512.16;;;17.68;100.00
71735;BME280;59577;52.122;5.406;2023-07-28T02:36:41;100514.13;;;17.67;100.00
71735;BME280;59577;52.122;5.406;2023-07-28T02:39:08;100517.63;;;17.68;100.00
71735;BME280;59577;52.122;5.406;2023-07-28T02:41:35;100519.59;;;17.67;100.00
71735;BME280;59577;52.122;5.406;2023-07-28T02:44:01;100523.09;;;17.68;100.00
71735;BME280;59577;52.122;5.406;2023-07-28T02:46:28;100523.09;;;17.68;100.00
71735;BME280;59577;52.122;5.406;2023-07-28T02:48:55;100527.00;;;17.71;100.00
71735;BME280;59577;52.122;5.406;2023-07-28T02:51:21;100534.81;;;17.72;100.00
71735;BME280;59577;52.122;5.406;2023-07-28T02:53:48;100529.34;;;17.72;100.00
71735;BME280;59577;52.122;5.406;2023-07-28T02:56:14;100540.28;;;17.72;100.00
71735;BME280;59577;52.122;5.406;2023-07-28T02:58:41;100544.56;;;17.73;100.00
71735;BME280;59577;52.122;5.406;2023-07-28T03:01:08;100545.75;;;17.72;100.00
71735;BME280;59577;52.122;5.406;2023-07-28T03:03:34;100545.75;;;17.72;100.00
71735;BME280;59577;52.122;5.406;2023-07-28T03:06:01;100543.78;;;17.73;100.00
71735;BME280;59577;52.122;5.406;2023-07-28T03:08:28;100539.09;;;17.73;100.00
71735;BME280;59577;52.122;5.406;2023-07-28T03:10:58;100546.53;;;17.73;100.00
71735;BME280;59577;52.122;5.406;2023-07-28T03:13:24;100548.84;;;17.74;100.00
71735;BME280;59577;52.122;5.406;2023-07-28T03:15:51;100549.25;;;17.73;100.00
71735;BME280;59577;52.122;5.406;2023-07-28T03:18:18;100559.03;;;17.74;100.00
71735;BME280;59577;52.122;5.406;2023-07-28T03:20:46;100554.34;;;17.74;100.00
71735;BME280;59577;52.122;5.406;2023-07-28T03:23:13;100556.31;;;17.74;100.00
71735;BME280;59577;52.122;5.406;2023-07-28T03:25:39;100560.97;;;17.73;100.00
71735;BME280;59577;52.122;5.406;2023-07-28T03:28:06;100566.47;;;17.73;100.00
71735;BME280;59577;52.122;5.406;2023-07-28T03:30:32;100562.94;;;17.73;100.00
71735;BME280;59577;52.122;5.406;2023-07-28T03:32:59;100558.66;;;17.72;100.00
71735;BME280;59577;52.122;5.406;2023-07-28T03:35:26;100559.84;;;17.71;100.00
71735;BME280;59577;52.122;5.406;2023-07-28T03:37:52;100568.84;;;17.71;100.00
71735;BME280;59577;52.122;5.406;2023-07-28T03:40:19;100564.13;;;17.72;100.00
71735;BME280;59577;52.122;5.406;2023-07-28T03:42:45;100565.31;;;17.71;100.00
71735;BME280;59577;52.122;5.406;2023-07-28T03:45:13;100575.47;;;17.74;100.00
71735;BME280;59577;52.122;5.406;2023-07-28T03:47:41;100572.72;;;17.74;100.00
71735;BME280;59577;52.122;5.406;2023-07-28T03:50:08;100574.66;;;17.73;100.00
71735;BME280;59577;52.122;5.406;2023-07-28T03:52:35;100570.75;;;17.74;100.00
71735;BME280;59577;52.122;5.406;2023-07-28T03:55:02;100576.22;;;17.74;100.00
71735;BME280;59577;52.122;5.406;2023-07-28T03:57:29;100571.53;;;17.75;100.00
71735;BME280;59577;52.122;5.406;2023-07-28T03:59:55;100572.69;;;17.77;100.00
71735;BME280;59577;52.122;5.406;2023-07-28T04:02:24;100578.16;;;17.77;100.00
71735;BME280;59577;52.122;5.406;2023-07-28T04:04:56;100575.44;;;17.77;100.00
71735;BME280;59577;52.122;5.406;2023-07-28T04:07:23;100573.44;;;17.78;100.00
71735;BME280;59577;52.122;5.406;2023-07-28T04:09:49;100570.72;;;17.78;100.00
71735;BME280;59577;52.122;5.406;2023-07-28T04:12:16;100576.19;;;17.78;100.00
71735;BME280;59577;52.122;5.406;2023-07-28T04:14:43;100578.88;;;17.81;100.00
71735;BME280;59577;52.122;5.406;2023-07-28T04:17:09;100580.50;;;17.79;100.00
71735;BME280;59577;52.122;5.406;2023-07-28T04:19:37;100580.84;;;17.81;100.00
71735;BME280;59577;52.122;5.406;2023-07-28T04:22:04;100576.91;;;17.82;100.00
71735;BME280;59577;52.122;5.406;2023-07-28T04:24:31;100575.75;;;17.83;100.00
71735;BME280;59577;52.122;5.406;2023-07-28T04:26:57;100577.31;;;17.84;100.00
71735;BME280;59577;52.122;5.406;2023-07-28T04:29:24;100575.75;;;17.83;100.00
71735;BME280;59577;52.122;5.406;2023-07-28T04:31:50;100575.75;;;17.83;100.00
71735;BME280;59577;52.122;5.406;2023-07-28T04:34:17;100579.25;;;17.83;100.00
71735;BME280;59577;52.122;5.406;2023-07-28T04:36:43;100588.25;;;17.84;100.00
71735;BME280;59577;52.122;5.406;2023-07-28T04:39:10;100580.81;;;17.84;100.00
71735;BME280;59577;52.122;5.406;2023-07-28T04:41:36;100597.25;;;17.84;100.00
71735;BME280;59577;52.122;5.406;2023-07-28T04:44:03;100590.56;;;17.85;100.00
71735;BME280;59577;52.122;5.406;2023-07-28T04:46:29;100584.31;;;17.85;100.00
71735;BME280;59577;52.122;5.406;2023-07-28T04:48:56;100589.81;;;17.85;100.00
71735;BME280;59577;52.122;5.406;2023-07-28T04:51:23;100586.69;;;17.87;100.00
71735;BME280;59577;52.122;5.406;2023-07-28T04:53:49;100592.53;;;17.89;100.00
71735;BME280;59577;52.122;5.406;2023-07-28T04:56:16;100594.50;;;17.88;100.00
71735;BME280;59577;52.122;5.406;2023-07-28T04:58:43;100586.28;;;17.88;100.00
71735;BME280;59577;52.122;5.406;2023-07-28T05:01:09;100595.28;;;17.89;100.00
71735;BME280;59577;52.122;5.406;2023-07-28T05:03:36;100595.28;;;17.89;100.00
71735;BME280;59577;52.122;5.406;2023-07-28T05:06:03;100598.81;;;17.89;100.00
71735;BME280;59577;52.122;5.406;2023-07-28T05:08:30;100603.06;;;17.90;100.00
71735;BME280;59577;52.122;5.406;2023-07-28T05:10:57;100596.44;;;17.91;100.00
71735;BME280;59577;52.122;5.406;2023-07-28T05:13:23;100606.97;;;17.93;100.00
71735;BME280;59577;52.122;5.406;2023-07-28T05:15:50;100598.31;;;17.94;100.00
71735;BME280;59577;52.122;5.406;2023-07-28T05:18:17;100598.31;;;17.98;100.00
71735;BME280;59577;52.122;5.406;2023-07-28T05:20:43;100599.44;;;18.00;100.00
71735;BME280;59577;52.122;5.406;2023-07-28T05:23:10;100601.81;;;17.98;100.00
71735;BME280;59577;52.122;5.406;2023-07-28T05:25:37;100592.78;;;18.01;100.00
71735;BME280;59577;52.122;5.406;2023-07-28T05:28:03;100598.22;;;18.05;100.00
71735;BME280;59577;52.122;5.406;2023-07-28T05:30:30;100598.19;;;18.09;100.00
71735;BME280;59577;52.122;5.406;2023-07-28T05:32:57;100596.16;;;18.13;100.00
71735;BME280;59577;52.122;5.406;2023-07-28T05:35:24;100593.03;;;18.14;100.00
71735;BME280;59577;52.122;5.406;2023-07-28T05:37:50;100602.41;;;18.13;100.00
71735;BME280;59577;52.122;5.406;2023-07-28T05:40:17;100593.06;;;18.11;100.00
71735;BME280;59577;52.122;5.406;2023-07-28T05:42:43;100598.16;;;18.12;100.00
71735;BME280;59577;52.122;5.406;2023-07-28T05:45:10;100598.88;;;18.16;100.00
71735;BME280;59577;52.122;5.406;2023-07-28T05:47:37;100600.75;;;18.23;100.00
71735;BME280;59577;52.122;5.406;2023-07-28T05:50:04;100608.50;;;18.28;100.00
71735;BME280;59577;52.122;5.406;2023-07-28T05:52:31;100611.63;;;18.30;100.00
71735;BME280;59577;52.122;5.406;2023-07-28T05:54:58;100617.84;;;18.34;100.00
71735;BME280;59577;52.122;5.406;2023-07-28T05:57:25;100617.00;;;18.37;100.00
71735;BME280;59577;52.122;5.406;2023-07-28T05:59:51;100615.81;;;18.38;100.00
71735;BME280;59577;52.122;5.406;2023-07-28T06:02:18;100620.53;;;18.38;100.00
71735;BME280;59577;52.122;5.406;2023-07-28T06:04:44;100622.88;;;18.39;100.00
71735;BME280;59577;52.122;5.406;2023-07-28T06:07:11;100625.56;;;18.43;100.00
71735;BME280;59577;52.122;5.406;2023-07-28T06:09:38;100620.44;;;18.45;100.00
71735;BME280;59577;52.122;5.406;2023-07-28T06:12:05;100623.97;;;18.46;100.00
71735;BME280;59577;52.122;5.406;2023-07-28T06:14:32;100631.78;;;18.47;100.00
71735;BME280;59577;52.122;5.406;2023-07-28T06:16:58;100626.66;;;18.49;100.00
71735;BME280;59577;52.122;5.406;2023-07-28T06:19:25;100627.75;;;18.55;100.00
71735;BME280;59577;52.122;5.406;2023-07-28T06:21:51;100629.22;;;18.64;100.00
71735;BME280;59577;52.122;5.406;2023-07-28T06:24:18;100628.25;;;18.77;100.00
71735;BME280;59577;52.122;5.406;2023-07-28T06:26:45;100633.66;;;18.85;100.00
71735;BME280;59577;52.122;5.406;2023-07-28T06:29:12;100646.13;;;18.89;100.00
71735;BME280;59577;52.122;5.406;2023-07-28T06:31:38;100643.81;;;18.88;100.00
71735;BME280;59577;52.122;5.406;2023-07-28T06:34:05;100643.44;;;18.86;100.00
71735;BME280;59577;52.122;5.406;2023-07-28T06:36:31;100645.00;;;18.87;100.00
71735;BME280;59577;52.122;5.406;2023-07-28T06:38:58;100652.84;;;18.85;100.00
71735;BME280;59577;52.122;5.406;2023-07-28T06:41:25;100650.88;;;18.85;100.00
71735;BME280;59577;52.122;5.406;2023-07-28T06:43:51;100650.88;;;18.85;100.00
71735;BME280;59577;52.122;5.406;2023-07-28T06:46:18;100664.94;;;18.87;100.00
71735;BME280;59577;52.122;5.406;2023-07-28T06:48:44;100666.06;;;18.93;100.00
71735;BME280;59577;52.122;5.406;2023-07-28T06:51:11;100670.72;;;18.96;100.00
71735;BME280;59577;52.122;5.406;2023-07-28T06:53:37;100666.06;;;18.93;100.00
71735;BME280;59577;52.122;5.406;2023-07-28T06:56:04;100672.72;;;18.92;100.00
71735;BME280;59577;52.122;5.406;2023-07-28T06:58:30;100674.34;;;18.90;100.00
71735;BME280;59577;52.122;5.406;2023-07-28T07:00:57;100680.59;;;18.90;100.00
71735;BME280;59577;52.122;5.406;2023-07-28T07:03:24;100679.03;;;18.89;100.00
71735;BME280;59577;52.122;5.406;2023-07-28T07:05:51;100673.22;;;18.84;100.00
71735;BME280;59577;52.122;5.406;2023-07-28T07:08:18;100680.69;;;18.83;100.00
71735;BME280;59577;52.122;5.406;2023-07-28T07:10:48;100683.44;;;18.83;100.00
71735;BME280;59577;52.122;5.406;2023-07-28T07:13:15;100679.88;;;18.86;100.00
71735;BME280;59577;52.122;5.406;2023-07-28T07:15:42;100679.78;;;18.93;100.00
71735;BME280;59577;52.122;5.406;2023-07-28T07:18:09;100684.84;;;18.95;100.00
71735;BME280;59577;52.122;5.406;2023-07-28T07:20:36;100692.22;;;18.98;100.00
71735;BME280;59577;52.122;5.406;2023-07-28T07:23:06;100689.06;;;19.00;100.00
71735;BME280;59577;52.122;5.406;2023-07-28T07:25:33;100694.56;;;19.00;100.00
71735;BME280;59577;52.122;5.406;2023-07-28T07:28:00;100701.97;;;19.03;100.00
71735;BME280;59577;52.122;5.406;2023-07-28T07:30:26;100698.72;;;19.11;100.00
71735;BME280;59577;52.122;5.406;2023-07-28T07:32:53;100696.75;;;19.12;100.00
71735;BME280;59577;52.122;5.406;2023-07-28T07:35:19;100703.44;;;19.11;100.00
71735;BME280;59577;52.122;5.406;2023-07-28T07:37:46;100706.22;;;19.07;100.00
71735;BME280;59577;52.122;5.406;2023-07-28T07:40:13;100709.34;;;19.09;100.00
71735;BME280;59577;52.122;5.406;2023-07-28T07:42:46;100708.56;;;19.09;100.00
71735;BME280;59577;52.122;5.406;2023-07-28T07:45:14;100714.78;;;19.13;100.00
71735;BME280;59577;52.122;5.406;2023-07-28T07:47:41;100720.63;;;19.15;100.00
71735;BME280;59577;52.122;5.406;2023-07-28T07:50:09;100724.88;;;19.20;100.00
71735;BME280;59577;52.122;5.406;2023-07-28T07:52:36;100721.59;;;19.28;100.00
71735;BME280;59577;52.122;5.406;2023-07-28T07:55:08;100722.25;;;19.36;100.00
71735;BME280;59577;52.122;5.406;2023-07-28T07:57:35;100726.09;;;19.42;100.00
71735;BME280;59577;52.122;5.406;2023-07-28T08:00:02;100729.50;;;19.50;100.00
71735;BME280;59577;52.122;5.406;2023-07-28T08:02:29;100732.53;;;19.59;100.00
71735;BME280;59577;52.122;5.406;2023-07-28T08:04:56;100731.56;;;19.69;100.00
71735;BME280;59577;52.122;5.406;2023-07-28T08:07:23;100742.56;;;19.69;100.00
71735;BME280;59577;52.122;5.406;2023-07-28T08:09:50;100736.63;;;19.75;100.00
71735;BME280;59577;52.122;5.406;2023-07-28T08:12:17;100746.88;;;19.94;100.00
71735;BME280;59577;52.122;5.406;2023-07-28T08:14:43;100741.88;;;20.13;99.50
71735;BME280;59577;52.122;5.406;2023-07-28T08:17:12;100741.19;;;20.28;98.53
71735;BME280;59577;52.122;5.406;2023-07-28T08:19:38;100734.50;;;20.50;97.60
71735;BME280;59577;52.122;5.406;2023-07-28T08:22:05;100737.75;;;20.84;96.16
71735;BME280;59577;52.122;5.406;2023-07-28T08:24:32;100737.25;;;21.26;94.77
71735;BME280;59577;52.122;5.406;2023-07-28T08:26:58;100732.41;;;21.50;92.33
71735;BME280;59577;52.122;5.406;2023-07-28T08:29:25;100735.94;;;21.84;92.00
71735;BME280;59577;52.122;5.406;2023-07-28T08:31:52;100736.91;;;22.23;88.04
71735;BME280;59577;52.122;5.406;2023-07-28T08:34:18;100736.19;;;22.35;87.02
71735;BME280;59577;52.122;5.406;2023-07-28T08:36:45;100745.78;;;22.30;86.62
71735;BME280;59577;52.122;5.406;2023-07-28T08:39:11;100744.81;;;22.21;85.93
71735;BME280;59577;52.122;5.406;2023-07-28T08:41:38;100751.81;;;22.09;86.45
71735;BME280;59577;52.122;5.406;2023-07-28T08:44:05;100749.44;;;21.94;86.73
71735;BME280;59577;52.122;5.406;2023-07-28T08:46:32;100753.22;;;22.01;87.38
71735;BME280;59577;52.122;5.406;2023-07-28T08:49:00;100752.69;;;22.06;85.57
71735;BME280;59577;52.122;5.406;2023-07-28T08:51:27;100753.03;;;22.08;84.89
71735;BME280;59577;52.122;5.406;2023-07-28T08:53:54;100754.63;;;21.92;85.75
71735;BME280;59577;52.122;5.406;2023-07-28T08:56:21;100754.44;;;21.83;86.53
71735;BME280;59577;52.122;5.406;2023-07-28T08:58:48;100750.25;;;21.78;86.81
71735;BME280;59577;52.122;5.406;2023-07-28T09:01:14;100749.00;;;21.79;87.92
71735;BME280;59577;52.122;5.406;2023-07-28T09:03:41;100754.69;;;21.89;86.44
71735;BME280;59577;52.122;5.406;2023-07-28T09:06:08;100753.56;;;21.86;86.14
71735;BME280;59577;52.122;5.406;2023-07-28T09:08:36;100756.84;;;21.81;86.17
71735;BME280;59577;52.122;5.406;2023-07-28T09:11:04;100757.63;;;21.82;86.64
71735;BME280;59577;52.122;5.406;2023-07-28T09:13:39;100757.63;;;21.82;85.89
71735;BME280;59577;52.122;5.406;2023-07-28T09:16:18;100763.41;;;21.71;85.87
71735;BME280;59577;52.122;5.406;2023-07-28T09:18:45;100756.25;;;21.90;85.78
71735;BME280;59577;52.122;5.406;2023-07-28T09:21:19;100766.03;;;22.24;86.17
71735;BME280;59577;52.122;5.406;2023-07-28T09:23:48;100758.94;;;23.36;85.41
71735;BME280;59577;52.122;5.406;2023-07-28T09:26:15;100754.59;;;24.21;79.58
71735;BME280;59577;52.122;5.406;2023-07-28T09:28:42;100763.81;;;24.40;76.05
71735;BME280;59577;52.122;5.406;2023-07-28T09:31:09;100757.06;;;24.42;76.48
71735;BME280;59577;52.122;5.406;2023-07-28T09:33:37;100764.44;;;24.57;72.73
71735;BME280;59577;52.122;5.406;2023-07-28T09:36:11;100766.25;;;24.38;73.51
71735;BME280;59577;52.122;5.406;2023-07-28T09:38:39;100756.03;;;24.26;72.97
71735;BME280;59577;52.122;5.406;2023-07-28T09:41:09;100766.41;;;24.22;72.66
71735;BME280;59577;52.122;5.406;2023-07-28T09:43:39;100763.28;;;23.98;73.58
71735;BME280;59577;52.122;5.406;2023-07-28T09:46:09;100772.00;;;24.09;73.70
71735;BME280;59577;52.122;5.406;2023-07-28T09:48:38;100767.78;;;24.17;73.59
71735;BME280;59577;52.122;5.406;2023-07-28T09:51:14;100773.63;;;24.19;73.48
71735;BME280;59577;52.122;5.406;2023-07-28T09:53:48;100768.75;;;24.46;73.33
71735;BME280;59577;52.122;5.406;2023-07-28T09:56:15;100772.66;;;24.70;72.49
71735;BME280;59577;52.122;5.406;2023-07-28T09:58:50;100766.69;;;25.03;71.13
71735;BME280;59577;52.122;5.406;2023-07-28T10:01:17;100757.19;;;25.13;69.32
71735;BME280;59577;52.122;5.406;2023-07-28T10:03:45;100762.53;;;24.99;68.41
71735;BME280;59577;52.122;5.406;2023-07-28T10:06:12;100765.97;;;24.90;70.09
71735;BME280;59577;52.122;5.406;2023-07-28T10:08:40;100763.78;;;25.07;68.92
71735;BME280;59577;52.122;5.406;2023-07-28T10:11:07;100756.66;;;25.78;69.29
71735;BME280;59577;52.122;5.406;2023-07-28T10:13:41;100762.34;;;25.83;69.80
71735;BME280;59577;52.122;5.406;2023-07-28T10:16:12;100768.09;;;26.07;66.36
71735;BME280;59577;52.122;5.406;2023-07-28T10:18:41;100770.72;;;26.02;65.21
71735;BME280;59577;52.122;5.406;2023-07-28T10:21:16;100763.00;;;25.97;66.87
71735;BME280;59577;52.122;5.406;2023-07-28T10:23:43;100762.84;;;25.91;64.37
71735;BME280;59577;52.122;5.406;2023-07-28T10:26:10;100762.34;;;25.83;65.94
71735;BME280;59577;52.122;5.406;2023-07-28T10:28:38;100774.84;;;25.79;65.84
71735;BME280;59577;52.122;5.406;2023-07-28T10:31:09;100760.88;;;26.19;63.17
71735;BME280;59577;52.122;5.406;2023-07-28T10:33:41;100757.94;;;26.41;62.58
71735;BME280;59577;52.122;5.406;2023-07-28T10:41:30;100763.47;;;26.60;61.46
71735;BME280;59577;52.122;5.406;2023-07-28T10:44:01;100755.75;;;26.73;63.67
71735;BME280;59577;52.122;5.406;2023-07-28T10:46:27;100756.50;;;27.26;61.35
71735;BME280;59577;52.122;5.406;2023-07-28T10:48:54;100758.50;;;27.34;60.59
71735;BME280;59577;52.122;5.406;2023-07-28T10:51:22;100764.00;;;27.44;59.11
71735;BME280;59577;52.122;5.406;2023-07-28T10:53:54;100764.53;;;27.33;59.43
71735;BME280;59577;52.122;5.406;2023-07-28T10:56:21;100758.09;;;27.51;60.31
71735;BME280;59577;52.122;5.406;2023-07-28T10:59:00;100760.50;;;27.91;59.56
71735;BME280;59577;52.122;5.406;2023-07-28T11:01:33;100766.75;;;27.77;58.92
71735;BME280;59577;52.122;5.406;2023-07-28T11:06:35;100773.81;;;27.20;59.89
71735;BME280;59577;52.122;5.406;2023-07-28T11:09:05;100770.50;;;27.41;60.57
71735;BME280;59577;52.122;5.406;2023-07-28T11:11:33;100772.19;;;26.95;59.08
71735;BME280;59577;52.122;5.406;2023-07-28T11:14:01;100778.72;;;26.83;61.25
71735;BME280;59577;52.122;5.406;2023-07-28T11:16:28;100777.50;;;27.27;60.25
71735;BME280;59577;52.122;5.406;2023-07-28T11:18:55;100778.72;;;27.35;62.52
71735;BME280;59577;52.122;5.406;2023-07-28T11:21:24;100780.09;;;26.88;61.74
71735;BME280;59577;52.122;5.406;2023-07-28T11:23:50;100788.94;;;26.77;61.06
71735;BME280;59577;52.122;5.406;2023-07-28T11:26:17;100779.03;;;26.57;61.96
71735;BME280;59577;52.122;5.406;2023-07-28T11:28:44;100778.91;;;26.52;62.92
71735;BME280;59577;52.122;5.406;2023-07-28T11:31:11;100783.69;;;26.33;62.82
71735;BME280;59577;52.122;5.406;2023-07-28T11:33:37;100781.16;;;25.88;62.39
71735;BME280;59577;52.122;5.406;2023-07-28T11:36:05;100788.16;;;25.52;64.39
71735;BME280;59577;52.122;5.406;2023-07-28T11:38:33;100795.81;;;25.39;65.53
71735;BME280;59577;52.122;5.406;2023-07-28T11:41:02;100791.53;;;25.47;65.74
71735;BME280;59577;52.122;5.406;2023-07-28T11:43:29;100790.97;;;25.62;66.12
71735;BME280;59577;52.122;5.406;2023-07-28T11:45:55;100788.03;;;25.56;65.66
71735;BME280;59577;52.122;5.406;2023-07-28T11:48:22;100775.06;;;25.44;66.13
71735;BME280;59577;52.122;5.406;2023-07-28T11:50:49;100779.56;;;25.60;67.18
71735;BME280;59577;52.122;5.406;2023-07-28T11:53:19;100781.34;;;25.94;65.32
71735;BME280;59577;52.122;5.406;2023-07-28T11:55:47;100781.38;;;26.03;64.52
71735;BME280;59577;52.122;5.406;2023-07-28T11:58:14;100792.00;;;26.33;64.73
71735;BME280;59577;52.122;5.406;2023-07-28T12:00:40;100786.75;;;26.35;64.09
71735;BME280;59577;52.122;5.406;2023-07-28T12:03:12;100787.22;;;26.52;64.69
71735;BME280;59577;52.122;5.406;2023-07-28T12:05:42;100785.06;;;26.74;61.81
71735;BME280;59577;52.122;5.406;2023-07-28T12:08:39;100786.00;;;26.53;61.28
71735;BME280;59577;52.122;5.406;2023-07-28T12:11:11;100783.69;;;26.79;61.83
71735;BME280;59577;52.122;5.406;2023-07-28T12:13:51;100790.56;;;27.02;61.22
71735;BME280;59577;52.122;5.406;2023-07-28T12:16:41;100785.47;;;27.00;60.16
71735;BME280;59577;52.122;5.406;2023-07-28T12:19:11;100791.84;;;26.55;60.89
71735;BME280;59577;52.122;5.406;2023-07-28T12:21:38;100792.47;;;26.22;61.06
71735;BME280;59577;52.122;5.406;2023-07-28T12:24:04;100794.16;;;26.01;60.93
71735;BME280;59577;52.122;5.406;2023-07-28T12:26:33;100794.16;;;26.19;62.46
71735;BME280;59577;52.122;5.406;2023-07-28T12:29:04;100802.97;;;26.36;61.12
71735;BME280;59577;52.122;5.406;2023-07-28T12:31:36;100802.97;;;26.27;59.81
71735;BME280;59577;52.122;5.406;2023-07-28T12:34:05;100794.00;;;26.78;60.38
71735;BME280;59577;52.122;5.406;2023-07-28T12:36:32;100792.34;;;26.72;59.19
71735;BME280;59577;52.122;5.406;2023-07-28T12:39:19;100783.66;;;26.60;59.97
71735;BME280;59577;52.122;5.406;2023-07-28T12:41:48;100783.66;;;26.60;60.77
71735;BME280;59577;52.122;5.406;2023-07-28T12:44:36;100792.31;;;26.81;59.18
71735;BME280;59577;52.122;5.406;2023-07-28T12:47:05;100790.63;;;26.65;59.95
71735;BME280;59577;52.122;5.406;2023-07-28T12:49:33;100796.63;;;26.54;59.77
71735;BME280;59577;52.122;5.406;2023-07-28T12:52:04;100795.56;;;26.33;59.41
71735;BME280;59577;52.122;5.406;2023-07-28T12:54:33;100802.19;;;26.36;60.01